AAL2017 KJFK-KMIA
Flight info
| Callsign | AAL2017 |
|---|---|
| Flight time | 2h 15m |
| Altitude | 38000 |
| Route | WAVEY EMJAY Q167 KALDA Q101 SKARP Y313 HOAGG BNFSH3 |
| Aircraft | B77W/H-SDE1E2E3FGHIJ2J3J4J5M1RWXY/LB1D1 |
Departure
| Time | 2026-05-05 22:11 |
|---|---|
| Airport | John F. Kennedy International Airport (KJFK) |
Arrival
| Time | 2026-05-06 00:26 |
|---|---|
| Airport | Miami International Airport (KMIA) |
| Time | Latitude | Longitude | Altitude | Speed | Heading |
|---|---|---|---|---|---|
| 2026-05-05 21:49 | 40.65080 | -73.79261 | 22 ft | 0 kts | 139° |
| 2026-05-05 21:57 | 40.65090 | -73.79274 | 22 ft | 2 kts | 128° |
| 2026-05-05 21:57 | 40.65099 | -73.79292 | 22 ft | 2 kts | 114° |
| 2026-05-05 21:57 | 40.65105 | -73.79311 | 22 ft | 2 kts | 103° |
| 2026-05-05 21:57 | 40.65108 | -73.79332 | 22 ft | 2 kts | 93° |
| 2026-05-05 21:58 | 40.65108 | -73.79353 | 22 ft | 2 kts | 82° |
| 2026-05-05 21:58 | 40.65104 | -73.79373 | 22 ft | 2 kts | 71° |
| 2026-05-05 21:58 | 40.65099 | -73.79391 | 22 ft | 1 kts | 61° |
| 2026-05-05 21:58 | 40.65097 | -73.79394 | 22 ft | 0 kts | 60° |
| 2026-05-05 22:03 | 40.65101 | -73.79385 | 22 ft | 4 kts | 60° |
| 2026-05-05 22:03 | 40.65151 | -73.79328 | 22 ft | 15 kts | 21° |
| 2026-05-05 22:04 | 40.65212 | -73.79246 | 22 ft | 12 kts | 87° |
| 2026-05-05 22:04 | 40.65197 | -73.79138 | 22 ft | 13 kts | 108° |
| 2026-05-05 22:04 | 40.65161 | -73.79003 | 22 ft | 17 kts | 110° |
| 2026-05-05 22:04 | 40.65142 | -73.78828 | 22 ft | 21 kts | 89° |
| 2026-05-05 22:05 | 40.65195 | -73.78629 | 22 ft | 25 kts | 62° |
| 2026-05-05 22:05 | 40.65301 | -73.78473 | 22 ft | 14 kts | 4° |
| 2026-05-05 22:05 | 40.65360 | -73.78344 | 22 ft | 23 kts | 121° |
| 2026-05-05 22:05 | 40.65274 | -73.78173 | 22 ft | 21 kts | 123° |
| 2026-05-05 22:06 | 40.65193 | -73.78014 | 22 ft | 19 kts | 124° |
| 2026-05-05 22:06 | 40.65118 | -73.77874 | 22 ft | 17 kts | 127° |
| 2026-05-05 22:06 | 40.65057 | -73.77753 | 22 ft | 13 kts | 116° |
| 2026-05-05 22:06 | 40.65020 | -73.77649 | 22 ft | 11 kts | 115° |
| 2026-05-05 22:07 | 40.64980 | -73.77544 | 22 ft | 17 kts | 118° |
| 2026-05-05 22:07 | 40.64926 | -73.77420 | 22 ft | 13 kts | 123° |
| 2026-05-05 22:07 | 40.64914 | -73.77396 | 22 ft | 13 kts | 123° |
| 2026-05-05 22:07 | 40.64897 | -73.77361 | 22 ft | 11 kts | 122° |
| 2026-05-05 22:08 | 40.64879 | -73.77325 | 22 ft | 10 kts | 123° |
| 2026-05-05 22:08 | 40.64836 | -73.77242 | 22 ft | 14 kts | 120° |
| 2026-05-05 22:08 | 40.64788 | -73.77080 | 22 ft | 23 kts | 125° |
| 2026-05-05 22:08 | 40.64690 | -73.76886 | 22 ft | 13 kts | 90° |
| 2026-05-05 22:09 | 40.64782 | -73.76765 | 22 ft | 21 kts | 31° |
| 2026-05-05 22:09 | 40.64900 | -73.76662 | 22 ft | 8 kts | 37° |
| 2026-05-05 22:09 | 40.64918 | -73.76608 | 22 ft | 7 kts | 96° |
| 2026-05-05 22:09 | 40.64903 | -73.76550 | 22 ft | 6 kts | 114° |
| 2026-05-05 22:10 | 40.64874 | -73.76512 | 22 ft | 5 kts | 161° |
| 2026-05-05 22:10 | 40.64810 | -73.76519 | 22 ft | 13 kts | 205° |
| 2026-05-05 22:10 | 40.64660 | -73.76633 | 22 ft | 32 kts | 210° |
| 2026-05-05 22:10 | 40.64374 | -73.76846 | 22 ft | 55 kts | 207° |
| 2026-05-05 22:11 | 40.63879 | -73.77240 | 23 ft | 126 kts | 212° |
| 2026-05-05 22:11 | 40.62870 | -73.78062 | 340 ft | 193 kts | 213° |
| 2026-05-05 22:11 | 40.61574 | -73.78881 | 1329 ft | 230 kts | 205° |
| 2026-05-05 22:11 | 40.60286 | -73.80197 | 2523 ft | 218 kts | 232° |
| 2026-05-05 22:12 | 40.59506 | -73.81641 | 4272 ft | 160 kts | 227° |
| 2026-05-05 22:12 | 40.58581 | -73.82643 | 4552 ft | 175 kts | 214° |
| 2026-05-05 22:12 | 40.57361 | -73.83602 | 4903 ft | 202 kts | 214° |
| 2026-05-05 22:12 | 40.55986 | -73.84648 | 5713 ft | 220 kts | 210° |
| 2026-05-05 22:13 | 40.54386 | -73.85421 | 6539 ft | 242 kts | 199° |
| 2026-05-05 22:13 | 40.52515 | -73.85767 | 7526 ft | 259 kts | 188° |
| 2026-05-05 22:13 | 40.50604 | -73.85407 | 8504 ft | 281 kts | 165° |
| 2026-05-05 22:13 | 40.48875 | -73.83847 | 9462 ft | 305 kts | 138° |
| 2026-05-05 22:14 | 40.47570 | -73.81544 | 10469 ft | 317 kts | 128° |
| 2026-05-05 22:14 | 40.46387 | -73.79042 | 11171 ft | 335 kts | 126° |
| 2026-05-05 22:14 | 40.45129 | -73.76354 | 11884 ft | 352 kts | 126° |
| 2026-05-05 22:14 | 40.43819 | -73.73592 | 12601 ft | 367 kts | 126° |
| 2026-05-05 22:15 | 40.42428 | -73.70705 | 13325 ft | 383 kts | 126° |
| 2026-05-05 22:15 | 40.40976 | -73.67725 | 14094 ft | 397 kts | 126° |
| 2026-05-05 22:15 | 40.39455 | -73.64639 | 14865 ft | 411 kts | 126° |
| 2026-05-05 22:15 | 40.37881 | -73.61462 | 15728 ft | 421 kts | 126° |
| 2026-05-05 22:16 | 40.36260 | -73.58219 | 16773 ft | 426 kts | 126° |
| 2026-05-05 22:16 | 40.34604 | -73.54923 | 17869 ft | 429 kts | 126° |
| 2026-05-05 22:16 | 40.32960 | -73.51673 | 18854 ft | 434 kts | 126° |
| 2026-05-05 22:16 | 40.31283 | -73.48380 | 19719 ft | 441 kts | 126° |
| 2026-05-05 22:17 | 40.29440 | -73.45167 | 20575 ft | 445 kts | 134° |
| 2026-05-05 22:17 | 40.27190 | -73.42387 | 21436 ft | 447 kts | 144° |
| 2026-05-05 22:17 | 40.24646 | -73.40052 | 22280 ft | 450 kts | 149° |
| 2026-05-05 22:17 | 40.22031 | -73.37793 | 23121 ft | 455 kts | 150° |
| 2026-05-05 22:18 | 40.19266 | -73.35856 | 23895 ft | 457 kts | 159° |
| 2026-05-05 22:18 | 40.16240 | -73.34472 | 24573 ft | 461 kts | 169° |
| 2026-05-05 22:18 | 40.13092 | -73.33736 | 25261 ft | 464 kts | 178° |
| 2026-05-05 22:18 | 40.09890 | -73.33664 | 25986 ft | 465 kts | 187° |
| 2026-05-05 22:19 | 40.06703 | -73.34255 | 26676 ft | 467 kts | 196° |
| 2026-05-05 22:19 | 40.03589 | -73.35513 | 27322 ft | 470 kts | 206° |
| 2026-05-05 22:19 | 40.00669 | -73.37408 | 27995 ft | 471 kts | 215° |
| 2026-05-05 22:19 | 39.97967 | -73.39860 | 28711 ft | 473 kts | 221° |
| 2026-05-05 22:20 | 39.95394 | -73.42454 | 29417 ft | 477 kts | 222° |
| 2026-05-05 22:20 | 39.92786 | -73.45173 | 30245 ft | 478 kts | 223° |
| 2026-05-05 22:20 | 39.90221 | -73.47895 | 31190 ft | 476 kts | 224° |
| 2026-05-05 22:20 | 39.87645 | -73.50661 | 32178 ft | 472 kts | 224° |
| 2026-05-05 22:21 | 39.85139 | -73.53374 | 33060 ft | 468 kts | 225° |
| 2026-05-05 22:21 | 39.82662 | -73.56078 | 33832 ft | 466 kts | 225° |
| 2026-05-05 22:21 | 39.80183 | -73.58800 | 34486 ft | 466 kts | 226° |
| 2026-05-05 22:21 | 39.77690 | -73.61547 | 34989 ft | 467 kts | 226° |
| 2026-05-05 22:22 | 39.75150 | -73.64349 | 35602 ft | 464 kts | 226° |
| 2026-05-05 22:22 | 39.72581 | -73.67187 | 36190 ft | 462 kts | 226° |
| 2026-05-05 22:22 | 39.70068 | -73.69963 | 36844 ft | 458 kts | 225° |
| 2026-05-05 22:22 | 39.67509 | -73.72790 | 37606 ft | 455 kts | 225° |
| 2026-05-05 22:23 | 39.65019 | -73.75542 | 37995 ft | 456 kts | 225° |
| 2026-05-05 22:23 | 39.60020 | -73.81061 | 37964 ft | 453 kts | 225° |
| 2026-05-05 22:24 | 39.55132 | -73.86453 | 37985 ft | 453 kts | 225° |
| 2026-05-05 22:24 | 39.50222 | -73.91857 | 37980 ft | 454 kts | 226° |
| 2026-05-05 22:25 | 39.45375 | -73.97183 | 37980 ft | 453 kts | 226° |
| 2026-05-05 22:25 | 39.40500 | -74.02531 | 37979 ft | 454 kts | 226° |
| 2026-05-05 22:26 | 39.35611 | -74.07877 | 37963 ft | 454 kts | 226° |
| 2026-05-05 22:26 | 39.30695 | -74.13242 | 37971 ft | 455 kts | 226° |
| 2026-05-05 22:27 | 39.25811 | -74.18564 | 37977 ft | 456 kts | 226° |
| 2026-05-05 22:27 | 39.20903 | -74.23899 | 37975 ft | 453 kts | 226° |
| 2026-05-05 22:28 | 39.16027 | -74.29192 | 37981 ft | 456 kts | 226° |
| 2026-05-05 22:28 | 39.11057 | -74.34574 | 37986 ft | 455 kts | 226° |
| 2026-05-05 22:29 | 39.06030 | -74.40009 | 37992 ft | 455 kts | 226° |
| 2026-05-05 22:29 | 39.00984 | -74.45453 | 37989 ft | 455 kts | 226° |
| 2026-05-05 22:30 | 38.95933 | -74.50891 | 37975 ft | 454 kts | 226° |
| 2026-05-05 22:30 | 38.90923 | -74.56488 | 37963 ft | 455 kts | 229° |
| 2026-05-05 22:31 | 38.86218 | -74.62045 | 37971 ft | 454 kts | 229° |
| 2026-05-05 22:31 | 38.81521 | -74.67562 | 37970 ft | 454 kts | 228° |
| 2026-05-05 22:32 | 38.76823 | -74.73059 | 37970 ft | 457 kts | 228° |
| 2026-05-05 22:32 | 38.71950 | -74.78487 | 37986 ft | 457 kts | 224° |
| 2026-05-05 22:32 | 38.69444 | -74.81072 | 38096 ft | 458 kts | 225° |
| 2026-05-05 22:33 | 38.66945 | -74.83651 | 37998 ft | 455 kts | 225° |
| 2026-05-05 22:33 | 38.61979 | -74.88788 | 37985 ft | 456 kts | 225° |
| 2026-05-05 22:34 | 38.56652 | -74.94304 | 37980 ft | 458 kts | 225° |
| 2026-05-05 22:34 | 38.51511 | -74.99663 | 37954 ft | 455 kts | 227° |
| 2026-05-05 22:35 | 38.46335 | -75.05463 | 37973 ft | 456 kts | 227° |
| 2026-05-05 22:35 | 38.40768 | -75.10854 | 37975 ft | 459 kts | 222° |
| 2026-05-05 22:36 | 38.35172 | -75.16113 | 37984 ft | 460 kts | 223° |
| 2026-05-05 22:36 | 38.29565 | -75.21401 | 37983 ft | 459 kts | 223° |
| 2026-05-05 22:37 | 38.23951 | -75.26700 | 37991 ft | 460 kts | 223° |
| 2026-05-05 22:37 | 38.18307 | -75.32025 | 37995 ft | 461 kts | 223° |
| 2026-05-05 22:38 | 38.12595 | -75.37406 | 37997 ft | 463 kts | 223° |
| 2026-05-05 22:38 | 38.07033 | -75.42636 | 38002 ft | 461 kts | 223° |
| 2026-05-05 22:39 | 38.01251 | -75.47866 | 37992 ft | 461 kts | 221° |
| 2026-05-05 22:39 | 37.95446 | -75.52899 | 37997 ft | 467 kts | 221° |
| 2026-05-05 22:40 | 37.89564 | -75.57956 | 37979 ft | 464 kts | 218° |
| 2026-05-05 22:40 | 37.82861 | -75.61372 | 37969 ft | 488 kts | 198° |
| 2026-05-05 22:40 | 37.79122 | -75.61977 | 37963 ft | 493 kts | 187° |
| 2026-05-05 22:41 | 37.75348 | -75.61810 | 37992 ft | 496 kts | 181° |
| 2026-05-05 22:41 | 37.67829 | -75.61393 | 37990 ft | 492 kts | 191° |
| 2026-05-05 22:42 | 37.60567 | -75.62782 | 37981 ft | 491 kts | 196° |
| 2026-05-05 22:42 | 37.53807 | -75.65211 | 37995 ft | 475 kts | 211° |
| 2026-05-05 22:43 | 37.47295 | -75.69097 | 37998 ft | 476 kts | 212° |
| 2026-05-05 22:43 | 37.40918 | -75.72925 | 38000 ft | 475 kts | 212° |
| 2026-05-05 22:44 | 37.34548 | -75.76742 | 37999 ft | 476 kts | 212° |
| 2026-05-05 22:44 | 37.28293 | -75.80482 | 37997 ft | 475 kts | 212° |
| 2026-05-05 22:45 | 37.21828 | -75.84341 | 38006 ft | 479 kts | 212° |
| 2026-05-05 22:45 | 37.15256 | -75.88255 | 38030 ft | 476 kts | 212° |
| 2026-05-05 22:46 | 37.08806 | -75.92088 | 38028 ft | 476 kts | 212° |
| 2026-05-05 22:46 | 37.02386 | -75.95899 | 38018 ft | 477 kts | 212° |
| 2026-05-05 22:47 | 36.95825 | -75.99783 | 38034 ft | 477 kts | 212° |
| 2026-05-05 22:47 | 36.89619 | -76.03451 | 38030 ft | 476 kts | 212° |
| 2026-05-05 22:48 | 36.83481 | -76.07070 | 38022 ft | 476 kts | 212° |
| 2026-05-05 22:48 | 36.77488 | -76.10603 | 38027 ft | 479 kts | 212° |
| 2026-05-05 22:49 | 36.72879 | -76.13315 | 38025 ft | 479 kts | 212° |
| 2026-05-05 22:50 | 36.71023 | -76.14405 | 38020 ft | 478 kts | 212° |
| 2026-05-05 22:50 | 36.64759 | -76.18082 | 38027 ft | 479 kts | 212° |
| 2026-05-05 22:51 | 36.58579 | -76.21703 | 38030 ft | 477 kts | 212° |
| 2026-05-05 22:51 | 36.52441 | -76.25294 | 38028 ft | 479 kts | 212° |
| 2026-05-05 22:52 | 36.46349 | -76.28851 | 38033 ft | 481 kts | 212° |
| 2026-05-05 22:52 | 36.39729 | -76.32709 | 38039 ft | 481 kts | 213° |
| 2026-05-05 22:53 | 36.33548 | -76.36305 | 38034 ft | 479 kts | 213° |
| 2026-05-05 22:53 | 36.27099 | -76.40050 | 38041 ft | 481 kts | 213° |
| 2026-05-05 22:54 | 36.20394 | -76.43936 | 38047 ft | 480 kts | 212° |
| 2026-05-05 22:54 | 36.13714 | -76.47800 | 38047 ft | 481 kts | 212° |
| 2026-05-05 22:55 | 36.07049 | -76.51649 | 38047 ft | 481 kts | 212° |
| 2026-05-05 22:55 | 36.00356 | -76.55506 | 38047 ft | 481 kts | 213° |
| 2026-05-05 22:56 | 35.93735 | -76.59314 | 38056 ft | 481 kts | 213° |
| 2026-05-05 22:56 | 35.87253 | -76.63037 | 38047 ft | 484 kts | 212° |
| 2026-05-05 22:57 | 35.80727 | -76.66776 | 38061 ft | 483 kts | 212° |
| 2026-05-05 22:57 | 35.74231 | -76.70493 | 38056 ft | 482 kts | 212° |
| 2026-05-05 22:58 | 35.67779 | -76.74179 | 38065 ft | 487 kts | 212° |
| 2026-05-05 22:58 | 35.61297 | -76.77872 | 38072 ft | 486 kts | 212° |
| 2026-05-05 22:59 | 35.54651 | -76.81654 | 38072 ft | 487 kts | 212° |
| 2026-05-05 22:59 | 35.47912 | -76.85480 | 38075 ft | 486 kts | 212° |
| 2026-05-05 23:00 | 35.37943 | -76.91130 | 38069 ft | 489 kts | 212° |
| 2026-05-05 23:00 | 35.31375 | -76.94841 | 38075 ft | 486 kts | 212° |
| 2026-05-05 23:01 | 35.24648 | -76.98638 | 38083 ft | 490 kts | 212° |
| 2026-05-05 23:01 | 35.18009 | -77.02376 | 38083 ft | 489 kts | 212° |
| 2026-05-05 23:02 | 35.11252 | -77.06175 | 38094 ft | 489 kts | 212° |
| 2026-05-05 23:02 | 35.04413 | -77.10012 | 38095 ft | 491 kts | 212° |
| 2026-05-05 23:03 | 34.97651 | -77.13799 | 38098 ft | 490 kts | 212° |
| 2026-05-05 23:03 | 34.90942 | -77.17548 | 38100 ft | 490 kts | 212° |
| 2026-05-05 23:04 | 34.84234 | -77.21291 | 38087 ft | 490 kts | 212° |
| 2026-05-05 23:04 | 34.77517 | -77.25032 | 38083 ft | 491 kts | 213° |
| 2026-05-05 23:05 | 34.70759 | -77.28788 | 38087 ft | 493 kts | 213° |
| 2026-05-05 23:05 | 34.63963 | -77.32558 | 38086 ft | 491 kts | 213° |
| 2026-05-05 23:06 | 34.57229 | -77.36288 | 38090 ft | 493 kts | 213° |
| 2026-05-05 23:06 | 34.50441 | -77.39992 | 38072 ft | 497 kts | 209° |
| 2026-05-05 23:07 | 34.43236 | -77.42099 | 38078 ft | 512 kts | 197° |
| 2026-05-05 23:07 | 34.35654 | -77.43588 | 38089 ft | 512 kts | 197° |
| 2026-05-05 23:08 | 34.28291 | -77.45027 | 38091 ft | 515 kts | 197° |
| 2026-05-05 23:08 | 34.20956 | -77.46458 | 38090 ft | 514 kts | 197° |
| 2026-05-05 23:09 | 34.13464 | -77.47916 | 38089 ft | 512 kts | 197° |
| 2026-05-05 23:09 | 34.06031 | -77.49362 | 38100 ft | 515 kts | 197° |
| 2026-05-05 23:10 | 33.98796 | -77.50764 | 38098 ft | 511 kts | 197° |
| 2026-05-05 23:10 | 33.91607 | -77.52158 | 38106 ft | 515 kts | 197° |
| 2026-05-05 23:11 | 33.84430 | -77.53546 | 38083 ft | 512 kts | 197° |
| 2026-05-05 23:11 | 33.77370 | -77.54910 | 38084 ft | 515 kts | 197° |
| 2026-05-05 23:12 | 33.70313 | -77.56271 | 38076 ft | 515 kts | 197° |
| 2026-05-05 23:12 | 33.63164 | -77.57647 | 38077 ft | 516 kts | 197° |
| 2026-05-05 23:13 | 33.56165 | -77.59285 | 38086 ft | 509 kts | 205° |
| 2026-05-05 23:13 | 33.49353 | -77.61659 | 38080 ft | 505 kts | 205° |
| 2026-05-05 23:14 | 33.42455 | -77.64083 | 38083 ft | 507 kts | 205° |
| 2026-05-05 23:14 | 33.35583 | -77.66487 | 38100 ft | 506 kts | 205° |
| 2026-05-05 23:15 | 33.28619 | -77.68921 | 38100 ft | 509 kts | 205° |
| 2026-05-05 23:15 | 33.21578 | -77.71373 | 38101 ft | 509 kts | 205° |
| 2026-05-05 23:16 | 33.14584 | -77.73805 | 38100 ft | 509 kts | 205° |
| 2026-05-05 23:16 | 33.07566 | -77.76240 | 38099 ft | 508 kts | 205° |
| 2026-05-05 23:17 | 33.00579 | -77.78661 | 38103 ft | 510 kts | 205° |
| 2026-05-05 23:17 | 32.93557 | -77.81090 | 38108 ft | 509 kts | 205° |
| 2026-05-05 23:18 | 32.86570 | -77.83503 | 38086 ft | 511 kts | 205° |
| 2026-05-05 23:18 | 32.79724 | -77.85862 | 38089 ft | 507 kts | 205° |
| 2026-05-05 23:19 | 32.72891 | -77.88218 | 38090 ft | 514 kts | 205° |
| 2026-05-05 23:19 | 32.66077 | -77.90552 | 38085 ft | 506 kts | 205° |
| 2026-05-05 23:20 | 32.59176 | -77.92800 | 38090 ft | 512 kts | 204° |
| 2026-05-05 23:20 | 32.52346 | -77.95005 | 38093 ft | 510 kts | 204° |
| 2026-05-05 23:21 | 32.45439 | -77.97238 | 38089 ft | 512 kts | 205° |
| 2026-05-05 23:21 | 32.38526 | -77.99471 | 38091 ft | 514 kts | 204° |
| 2026-05-05 23:22 | 32.31618 | -78.01698 | 38075 ft | 510 kts | 204° |
| 2026-05-05 23:22 | 32.24740 | -78.03915 | 38077 ft | 514 kts | 205° |
| 2026-05-05 23:23 | 32.17859 | -78.06128 | 38079 ft | 510 kts | 205° |
| 2026-05-05 23:23 | 32.10939 | -78.08352 | 38077 ft | 512 kts | 205° |
| 2026-05-05 23:24 | 32.04079 | -78.10553 | 38084 ft | 515 kts | 204° |
| 2026-05-05 23:24 | 31.97158 | -78.12769 | 38075 ft | 511 kts | 205° |
| 2026-05-05 23:25 | 31.90293 | -78.14964 | 38081 ft | 514 kts | 204° |
| 2026-05-05 23:25 | 31.83424 | -78.17155 | 38055 ft | 508 kts | 204° |
| 2026-05-05 23:26 | 31.76513 | -78.19362 | 38057 ft | 513 kts | 204° |
| 2026-05-05 23:26 | 31.69673 | -78.21537 | 38064 ft | 511 kts | 205° |
| 2026-05-05 23:27 | 31.62843 | -78.23707 | 38063 ft | 509 kts | 205° |
| 2026-05-05 23:27 | 31.55947 | -78.25897 | 38071 ft | 512 kts | 204° |
| 2026-05-05 23:28 | 31.49133 | -78.28056 | 38076 ft | 511 kts | 204° |
| 2026-05-05 23:28 | 31.42258 | -78.30296 | 38067 ft | 508 kts | 205° |
| 2026-05-05 23:29 | 31.35532 | -78.32560 | 38071 ft | 510 kts | 205° |
| 2026-05-05 23:29 | 31.28710 | -78.34848 | 38071 ft | 506 kts | 205° |
| 2026-05-05 23:30 | 31.21973 | -78.37102 | 38071 ft | 506 kts | 205° |
| 2026-05-05 23:30 | 31.15167 | -78.39374 | 38071 ft | 507 kts | 205° |
| 2026-05-05 23:31 | 31.08449 | -78.41610 | 38066 ft | 501 kts | 205° |
| 2026-05-05 23:31 | 31.01668 | -78.43870 | 38070 ft | 507 kts | 205° |
| 2026-05-05 23:32 | 30.94871 | -78.46126 | 38078 ft | 508 kts | 205° |
| 2026-05-05 23:32 | 30.88105 | -78.48367 | 38057 ft | 503 kts | 205° |
| 2026-05-05 23:33 | 30.81372 | -78.50596 | 38059 ft | 503 kts | 205° |
| 2026-05-05 23:33 | 30.74602 | -78.52836 | 38049 ft | 505 kts | 205° |
| 2026-05-05 23:34 | 30.67863 | -78.55058 | 38054 ft | 502 kts | 205° |
| 2026-05-05 23:34 | 30.61100 | -78.57290 | 38054 ft | 505 kts | 205° |
| 2026-05-05 23:35 | 30.54347 | -78.59509 | 38055 ft | 501 kts | 205° |
| 2026-05-05 23:35 | 30.47546 | -78.61746 | 38048 ft | 501 kts | 205° |
| 2026-05-05 23:36 | 30.40856 | -78.63940 | 38052 ft | 502 kts | 205° |
| 2026-05-05 23:36 | 30.34069 | -78.66167 | 38064 ft | 504 kts | 205° |
| 2026-05-05 23:37 | 30.27306 | -78.68379 | 38067 ft | 503 kts | 205° |
| 2026-05-05 23:37 | 30.20594 | -78.70571 | 38067 ft | 503 kts | 205° |
| 2026-05-05 23:38 | 30.13847 | -78.72773 | 38064 ft | 501 kts | 205° |
| 2026-05-05 23:38 | 30.07134 | -78.74958 | 38065 ft | 497 kts | 205° |
| 2026-05-05 23:39 | 30.00431 | -78.77142 | 38062 ft | 503 kts | 205° |
| 2026-05-05 23:39 | 29.93673 | -78.79338 | 38066 ft | 504 kts | 205° |
| 2026-05-05 23:40 | 29.86928 | -78.81524 | 38044 ft | 502 kts | 205° |
| 2026-05-05 23:40 | 29.80232 | -78.83691 | 38042 ft | 500 kts | 204° |
| 2026-05-05 23:41 | 29.73234 | -78.84997 | 38049 ft | 512 kts | 195° |
| 2026-05-05 23:41 | 29.66151 | -78.85948 | 38051 ft | 515 kts | 195° |
| 2026-05-05 23:42 | 29.59034 | -78.86903 | 38051 ft | 516 kts | 195° |
| 2026-05-05 23:42 | 29.51899 | -78.87859 | 38053 ft | 513 kts | 195° |
| 2026-05-05 23:43 | 29.44819 | -78.88811 | 38053 ft | 517 kts | 195° |
| 2026-05-05 23:43 | 29.37680 | -78.89766 | 38050 ft | 512 kts | 195° |
| 2026-05-05 23:44 | 29.30565 | -78.90722 | 38052 ft | 519 kts | 195° |
| 2026-05-05 23:44 | 29.23414 | -78.91676 | 38048 ft | 511 kts | 195° |
| 2026-05-05 23:45 | 29.16346 | -78.92622 | 38059 ft | 516 kts | 195° |
| 2026-05-05 23:45 | 29.09152 | -78.93584 | 38054 ft | 518 kts | 195° |
| 2026-05-05 23:46 | 29.02075 | -78.94524 | 38049 ft | 513 kts | 195° |
| 2026-05-05 23:46 | 28.94938 | -78.95476 | 38052 ft | 516 kts | 195° |
| 2026-05-05 23:47 | 28.87759 | -78.96431 | 38041 ft | 519 kts | 195° |
| 2026-05-05 23:47 | 28.80622 | -78.97378 | 38040 ft | 516 kts | 195° |
| 2026-05-05 23:48 | 28.73480 | -78.98324 | 38039 ft | 517 kts | 195° |
| 2026-05-05 23:48 | 28.66336 | -78.99270 | 38038 ft | 517 kts | 195° |
| 2026-05-05 23:49 | 28.59173 | -79.00219 | 38038 ft | 519 kts | 195° |
| 2026-05-05 23:49 | 28.51988 | -79.01165 | 38038 ft | 517 kts | 195° |
| 2026-05-05 23:50 | 28.44815 | -79.02111 | 38041 ft | 515 kts | 195° |
| 2026-05-05 23:50 | 28.37729 | -79.03044 | 38038 ft | 517 kts | 195° |
| 2026-05-05 23:51 | 28.30783 | -79.04804 | 38040 ft | 502 kts | 208° |
| 2026-05-05 23:51 | 28.24175 | -79.07261 | 38039 ft | 496 kts | 209° |
| 2026-05-05 23:52 | 28.17567 | -79.09731 | 38037 ft | 498 kts | 208° |
| 2026-05-05 23:52 | 28.10945 | -79.12202 | 38039 ft | 499 kts | 208° |
| 2026-05-05 23:53 | 28.04313 | -79.14670 | 38034 ft | 499 kts | 209° |
| 2026-05-05 23:53 | 27.97707 | -79.17122 | 38035 ft | 496 kts | 209° |
| 2026-05-05 23:54 | 27.91090 | -79.19579 | 38035 ft | 497 kts | 208° |
| 2026-05-05 23:54 | 27.84524 | -79.22013 | 38020 ft | 501 kts | 208° |
| 2026-05-05 23:55 | 27.77866 | -79.24476 | 38016 ft | 497 kts | 208° |
| 2026-05-05 23:55 | 27.71279 | -79.26910 | 38018 ft | 498 kts | 208° |
| 2026-05-05 23:56 | 27.67987 | -79.28123 | 37558 ft | 495 kts | 208° |
| 2026-05-05 23:56 | 27.64718 | -79.29331 | 36613 ft | 498 kts | 208° |
| 2026-05-05 23:56 | 27.61391 | -79.30560 | 35741 ft | 499 kts | 208° |
| 2026-05-05 23:56 | 27.58077 | -79.31782 | 34916 ft | 500 kts | 208° |
| 2026-05-05 23:57 | 27.54768 | -79.33001 | 34047 ft | 501 kts | 207° |
| 2026-05-05 23:57 | 27.51446 | -79.34223 | 33173 ft | 502 kts | 207° |
| 2026-05-05 23:57 | 27.48119 | -79.35448 | 32326 ft | 503 kts | 207° |
| 2026-05-05 23:57 | 27.44782 | -79.36675 | 31416 ft | 506 kts | 206° |
| 2026-05-05 23:58 | 27.41435 | -79.37905 | 30570 ft | 507 kts | 206° |
| 2026-05-05 23:58 | 27.38086 | -79.39132 | 30066 ft | 500 kts | 205° |
| 2026-05-05 23:58 | 27.34835 | -79.40321 | 29543 ft | 494 kts | 205° |
| 2026-05-05 23:58 | 27.31556 | -79.41522 | 28968 ft | 489 kts | 205° |
| 2026-05-05 23:59 | 27.28286 | -79.42720 | 28393 ft | 485 kts | 205° |
| 2026-05-05 23:59 | 27.25021 | -79.43915 | 27798 ft | 481 kts | 205° |
| 2026-05-05 23:59 | 27.21736 | -79.45116 | 27189 ft | 477 kts | 205° |
| 2026-05-05 23:59 | 27.18473 | -79.46310 | 26576 ft | 473 kts | 205° |
| 2026-05-06 00:00 | 27.15232 | -79.47495 | 25960 ft | 470 kts | 204° |
| 2026-05-06 00:00 | 27.12031 | -79.48664 | 25350 ft | 466 kts | 204° |
| 2026-05-06 00:00 | 27.08903 | -79.49806 | 24751 ft | 462 kts | 204° |
| 2026-05-06 00:00 | 27.05745 | -79.50958 | 24137 ft | 458 kts | 204° |
| 2026-05-06 00:01 | 27.02767 | -79.52044 | 23643 ft | 452 kts | 204° |
| 2026-05-06 00:01 | 26.99763 | -79.53137 | 23321 ft | 442 kts | 204° |
| 2026-05-06 00:01 | 26.96846 | -79.54198 | 22991 ft | 436 kts | 204° |
| 2026-05-06 00:01 | 26.93904 | -79.55271 | 22622 ft | 436 kts | 204° |
| 2026-05-06 00:02 | 26.90982 | -79.56336 | 22267 ft | 436 kts | 204° |
| 2026-05-06 00:02 | 26.88017 | -79.57413 | 21888 ft | 431 kts | 204° |
| 2026-05-06 00:02 | 26.85139 | -79.58453 | 21484 ft | 427 kts | 203° |
| 2026-05-06 00:02 | 26.82229 | -79.59502 | 21077 ft | 424 kts | 203° |
| 2026-05-06 00:03 | 26.79325 | -79.60550 | 20672 ft | 423 kts | 203° |
| 2026-05-06 00:03 | 26.76483 | -79.61574 | 20271 ft | 417 kts | 202° |
| 2026-05-06 00:03 | 26.73631 | -79.62600 | 19880 ft | 410 kts | 202° |
| 2026-05-06 00:03 | 26.70862 | -79.63596 | 19500 ft | 402 kts | 202° |
| 2026-05-06 00:04 | 26.68155 | -79.64570 | 19123 ft | 395 kts | 202° |
| 2026-05-06 00:04 | 26.65501 | -79.65524 | 18759 ft | 389 kts | 201° |
| 2026-05-06 00:04 | 26.62937 | -79.66446 | 18410 ft | 382 kts | 201° |
| 2026-05-06 00:04 | 26.60445 | -79.67331 | 18085 ft | 376 kts | 201° |
| 2026-05-06 00:05 | 26.55433 | -79.69084 | 17357 ft | 372 kts | 201° |
| 2026-05-06 00:05 | 26.52999 | -79.69935 | 17012 ft | 370 kts | 201° |
| 2026-05-06 00:05 | 26.50514 | -79.70804 | 16673 ft | 368 kts | 201° |
| 2026-05-06 00:06 | 26.48106 | -79.71668 | 16326 ft | 364 kts | 205° |
| 2026-05-06 00:06 | 26.45865 | -79.72979 | 15984 ft | 358 kts | 219° |
| 2026-05-06 00:06 | 26.44030 | -79.74801 | 15734 ft | 351 kts | 228° |
| 2026-05-06 00:06 | 26.42328 | -79.76762 | 15518 ft | 352 kts | 230° |
| 2026-05-06 00:07 | 26.40664 | -79.78736 | 15289 ft | 350 kts | 230° |
| 2026-05-06 00:07 | 26.39011 | -79.80726 | 15039 ft | 348 kts | 231° |
| 2026-05-06 00:07 | 26.37541 | -79.82828 | 14820 ft | 342 kts | 237° |
| 2026-05-06 00:07 | 26.36181 | -79.84995 | 14582 ft | 333 kts | 238° |
| 2026-05-06 00:08 | 26.34882 | -79.87083 | 14365 ft | 324 kts | 238° |
| 2026-05-06 00:08 | 26.33616 | -79.89114 | 14159 ft | 316 kts | 238° |
| 2026-05-06 00:08 | 26.32376 | -79.91099 | 13953 ft | 308 kts | 238° |
| 2026-05-06 00:08 | 26.31169 | -79.93028 | 13753 ft | 303 kts | 239° |
| 2026-05-06 00:09 | 26.29916 | -79.95031 | 13544 ft | 304 kts | 239° |
| 2026-05-06 00:09 | 26.28612 | -79.97113 | 13325 ft | 303 kts | 239° |
| 2026-05-06 00:09 | 26.27323 | -79.99169 | 13112 ft | 301 kts | 239° |
| 2026-05-06 00:09 | 26.25942 | -80.01121 | 12884 ft | 304 kts | 225° |
| 2026-05-06 00:10 | 26.23944 | -80.02383 | 12661 ft | 311 kts | 201° |
| 2026-05-06 00:10 | 26.21795 | -80.03013 | 12463 ft | 313 kts | 195° |
| 2026-05-06 00:10 | 26.19656 | -80.03509 | 12252 ft | 311 kts | 194° |
| 2026-05-06 00:10 | 26.17529 | -80.03987 | 12043 ft | 310 kts | 194° |
| 2026-05-06 00:11 | 26.15384 | -80.04472 | 11831 ft | 309 kts | 194° |
| 2026-05-06 00:11 | 26.13301 | -80.04947 | 11627 ft | 308 kts | 194° |
| 2026-05-06 00:11 | 26.11198 | -80.05427 | 11422 ft | 306 kts | 194° |
| 2026-05-06 00:11 | 26.09095 | -80.05907 | 11217 ft | 305 kts | 194° |
| 2026-05-06 00:12 | 26.07005 | -80.06383 | 11012 ft | 305 kts | 194° |
| 2026-05-06 00:12 | 26.04930 | -80.06897 | 10790 ft | 304 kts | 196° |
| 2026-05-06 00:12 | 26.02865 | -80.07446 | 10549 ft | 302 kts | 196° |
| 2026-05-06 00:12 | 26.00709 | -80.08014 | 10302 ft | 297 kts | 196° |
| 2026-05-06 00:13 | 25.98549 | -80.08577 | 10059 ft | 292 kts | 196° |
| 2026-05-06 00:13 | 25.96414 | -80.09132 | 9769 ft | 288 kts | 196° |
| 2026-05-06 00:13 | 25.94353 | -80.09668 | 9470 ft | 285 kts | 196° |
| 2026-05-06 00:13 | 25.92478 | -80.10439 | 9171 ft | 278 kts | 217° |
| 2026-05-06 00:14 | 25.90977 | -80.11871 | 8928 ft | 273 kts | 228° |
| 2026-05-06 00:14 | 25.89595 | -80.13504 | 8691 ft | 272 kts | 230° |
| 2026-05-06 00:14 | 25.88383 | -80.15301 | 8435 ft | 268 kts | 248° |
| 2026-05-06 00:14 | 25.87950 | -80.17410 | 8200 ft | 266 kts | 266° |
| 2026-05-06 00:15 | 25.87853 | -80.19486 | 7974 ft | 264 kts | 269° |
| 2026-05-06 00:15 | 25.87786 | -80.21596 | 7580 ft | 269 kts | 269° |
| 2026-05-06 00:15 | 25.87714 | -80.23741 | 7102 ft | 274 kts | 269° |
| 2026-05-06 00:15 | 25.87645 | -80.25892 | 6586 ft | 275 kts | 269° |
| 2026-05-06 00:16 | 25.87599 | -80.28003 | 6184 ft | 268 kts | 275° |
| 2026-05-06 00:16 | 25.88112 | -80.30051 | 5785 ft | 260 kts | 295° |
| 2026-05-06 00:16 | 25.88984 | -80.31976 | 5553 ft | 262 kts | 298° |
| 2026-05-06 00:16 | 25.89914 | -80.33896 | 5244 ft | 262 kts | 299° |
| 2026-05-06 00:17 | 25.90818 | -80.35749 | 4950 ft | 260 kts | 299° |
| 2026-05-06 00:17 | 25.91765 | -80.37693 | 4645 ft | 259 kts | 299° |
| 2026-05-06 00:17 | 25.92703 | -80.39621 | 4342 ft | 258 kts | 299° |
| 2026-05-06 00:17 | 25.93535 | -80.41567 | 4046 ft | 258 kts | 285° |
| 2026-05-06 00:18 | 25.93725 | -80.43753 | 3999 ft | 261 kts | 271° |
| 2026-05-06 00:18 | 25.93707 | -80.46003 | 3998 ft | 262 kts | 270° |
| 2026-05-06 00:18 | 25.93659 | -80.48258 | 3986 ft | 263 kts | 268° |
| 2026-05-06 00:18 | 25.93622 | -80.50491 | 3898 ft | 261 kts | 279° |
| 2026-05-06 00:19 | 25.94294 | -80.52597 | 3858 ft | 259 kts | 303° |
| 2026-05-06 00:19 | 25.95420 | -80.54484 | 3734 ft | 257 kts | 303° |
| 2026-05-06 00:19 | 25.96015 | -80.56559 | 3456 ft | 255 kts | 271° |
| 2026-05-06 00:19 | 25.95545 | -80.58598 | 3365 ft | 244 kts | 239° |
| 2026-05-06 00:20 | 25.94252 | -80.60048 | 3324 ft | 227 kts | 206° |
| 2026-05-06 00:20 | 25.92691 | -80.60379 | 3287 ft | 206 kts | 169° |
| 2026-05-06 00:20 | 25.91454 | -80.59704 | 3254 ft | 195 kts | 131° |
| 2026-05-06 00:20 | 25.90884 | -80.58334 | 3223 ft | 187 kts | 91° |
| 2026-05-06 00:21 | 25.90938 | -80.56797 | 3221 ft | 185 kts | 86° |
| 2026-05-06 00:21 | 25.91013 | -80.55249 | 3220 ft | 184 kts | 86° |
| 2026-05-06 00:21 | 25.91088 | -80.53710 | 3220 ft | 184 kts | 86° |
| 2026-05-06 00:21 | 25.91029 | -80.52145 | 3215 ft | 185 kts | 102° |
| 2026-05-06 00:22 | 25.90508 | -80.50696 | 3213 ft | 187 kts | 115° |
| 2026-05-06 00:22 | 25.89808 | -80.49310 | 3213 ft | 191 kts | 118° |
| 2026-05-06 00:22 | 25.89101 | -80.47978 | 3174 ft | 189 kts | 118° |
| 2026-05-06 00:22 | 25.88393 | -80.46619 | 3112 ft | 190 kts | 118° |
| 2026-05-06 00:23 | 25.87727 | -80.45322 | 2911 ft | 190 kts | 118° |
| 2026-05-06 00:23 | 25.87079 | -80.44066 | 2684 ft | 187 kts | 117° |
| 2026-05-06 00:23 | 25.86410 | -80.42768 | 2448 ft | 186 kts | 117° |
| 2026-05-06 00:23 | 25.85730 | -80.41450 | 2205 ft | 185 kts | 116° |
| 2026-05-06 00:24 | 25.85036 | -80.40103 | 1955 ft | 179 kts | 116° |
| 2026-05-06 00:24 | 25.84405 | -80.38892 | 1713 ft | 158 kts | 115° |
| 2026-05-06 00:24 | 25.83840 | -80.37800 | 1519 ft | 147 kts | 115° |
| 2026-05-06 00:24 | 25.83301 | -80.36755 | 1328 ft | 140 kts | 115° |
| 2026-05-06 00:25 | 25.82780 | -80.35742 | 1133 ft | 138 kts | 115° |
| 2026-05-06 00:25 | 25.82262 | -80.34737 | 937 ft | 137 kts | 115° |
| 2026-05-06 00:25 | 25.81760 | -80.33763 | 745 ft | 136 kts | 115° |
| 2026-05-06 00:25 | 25.81261 | -80.32793 | 558 ft | 135 kts | 116° |
| 2026-05-06 00:26 | 25.80751 | -80.31804 | 364 ft | 134 kts | 116° |
| 2026-05-06 00:26 | 25.80238 | -80.30808 | 171 ft | 134 kts | 116° |
| 2026-05-06 00:26 | 25.79731 | -80.29820 | 19 ft | 126 kts | 117° |
| 2026-05-06 00:26 | 25.79428 | -80.29221 | 18 ft | 38 kts | 114° |
| 2026-05-06 00:27 | 25.79434 | -80.29067 | 18 ft | 19 kts | 77° |
| 2026-05-06 00:27 | 25.79375 | -80.28886 | 20 ft | 25 kts | 120° |
| 2026-05-06 00:27 | 25.79266 | -80.28674 | 19 ft | 31 kts | 118° |
| 2026-05-06 00:27 | 25.79096 | -80.28366 | 18 ft | 43 kts | 128° |
| 2026-05-06 00:28 | 25.78942 | -80.28075 | 18 ft | 31 kts | 114° |
| 2026-05-06 00:28 | 25.78944 | -80.27837 | 18 ft | 29 kts | 97° |
| 2026-05-06 00:28 | 25.78957 | -80.27618 | 18 ft | 26 kts | 83° |
| 2026-05-06 00:28 | 25.78948 | -80.27415 | 18 ft | 25 kts | 84° |
| 2026-05-06 00:29 | 25.79036 | -80.27242 | 18 ft | 23 kts | 33° |
| 2026-05-06 00:29 | 25.79165 | -80.27241 | 18 ft | 1 kts | 298° |
| 2026-05-06 00:29 | 25.79164 | -80.27264 | 18 ft | 3 kts | 265° |